FYKT/KMP METAR and TAF weather

Enter ICAO airport designator
Station Type Date Time Source
FYKT METAR 2020/03/31 13:00 UTC NOAA

FYKT 311300Z AUTO 24005KT //// // ////// 32/12 Q1000


Station Type Date Time Source
FYKT Decoded METAR 2020/03/31 13:00 UTC NOAA

Keetmanshoop, Namibia (FYKT) 26-32S 018-07E 1100M
Mar 31, 2020 - 09:00 AM EDT / 2020.03.31 1300 UTC
Wind: from the WSW (240 degrees) at 6 MPH (5 KT):0
Temperature: 89 F (32 C)
Dew Point: 53 F (12 C)
Relative Humidity: 29%
Pressure (altimeter): 29.53 in. Hg (1000 hPa)
ob: FYKT 311300Z AUTO 24005KT //// // ////// 32/12 Q1000
cycle: 13

Station Type Date Time Source
FYKT TAF 2020/03/31 12:19 UTC NOAA

TAF FYKT 311000Z 3112/0112 00000KT 9999 SCT050
BECMG 3113/3115 20018KT FEW040TCU SCT045 PROB30
TEMPO 3116/3118 29005KT -TSRA FEW030CB BKN040TCU
BECMG 3119/3121 NSC

Example: see airport list